Time;durP1;ratioP1;P1;durP2;ratioP2;P2;SDS_P1;SDS_P2;PMS_P1;PMS_P2;Temp;Humidity;BMP_temperature;BMP_pressure;BME280_temperature;BME280_humidity;BME280_pressure;Samples;Min_cycle;Max_cycle;Signal;HPM_P1;HPM_P2
2023/02/18 00:00:59;;;;;;;;;8.25;8.00;;;;;14.16;66.70;102133.88;6332804;22;45613;-74
2023/02/18 00:03:27;;;;;;;;;9.00;8.00;;;;;14.17;66.85;102138.19;6332815;22;45639;-74
2023/02/18 00:05:53;;;;;;;;;8.75;8.00;;;;;14.21;66.46;102129.16;6333340;22;45488;-75
2023/02/18 00:08:19;;;;;;;;;7.75;6.00;;;;;14.19;66.54;102129.28;6304051;22;46738;-74
2023/02/18 00:14:11;;;;;;;;;9.75;8.75;;;;;14.22;66.22;102130.84;6332218;22;45644;-74
2023/02/18 00:16:37;;;;;;;;;9.75;8.00;;;;;14.23;66.35;102132.56;6332238;22;45660;-74
2023/02/18 00:19:05;;;;;;;;;7.50;7.25;;;;;14.20;66.09;102132.72;6331961;22;46442;-74
2023/02/18 00:21:32;;;;;;;;;10.00;10.00;;;;;14.21;66.09;102137.91;6332123;22;46818;-73
2023/02/18 00:23:57;;;;;;;;;10.25;9.00;;;;;14.17;66.14;102144.31;6331638;22;45750;-75
2023/02/18 00:26:23;;;;;;;;;9.25;9.00;;;;;14.13;66.61;102134.06;6304274;22;45746;-74
2023/02/18 00:28:50;;;;;;;;;6.00;6.00;;;;;14.10;66.35;102119.28;6331671;22;47335;-74
2023/02/18 00:31:22;;;;;;;;;12.25;9.50;;;;;14.09;66.57;102136.03;6331818;22;47494;-74
2023/02/18 00:33:48;;;;;;;;;8.50;8.50;;;;;13.94;66.20;102100.06;6304086;22;45698;-75
2023/02/18 00:36:16;;;;;;;;;9.25;8.50;;;;;14.03;66.49;102128.53;6331969;22;45794;-75
2023/02/18 00:38:55;;;;;;;;;8.25;5.75;;;;;14.05;66.47;102129.25;6331416;22;46862;-74
2023/02/18 00:41:22;;;;;;;;;9.75;9.00;;;;;14.04;66.72;102132.81;6332555;22;46027;-75
2023/02/18 00:43:48;;;;;;;;;9.75;9.25;;;;;14.00;66.46;102123.41;6332552;22;45681;-74
2023/02/18 00:46:13;;;;;;;;;5.75;5.75;;;;;14.05;66.76;102123.97;6331985;22;45637;-74
2023/02/18 00:48:39;;;;;;;;;9.25;9.00;;;;;14.08;66.82;102126.44;6331357;22;47427;-74
2023/02/18 00:51:06;;;;;;;;;6.25;6.00;;;;;14.08;66.70;102120.31;6332335;22;45582;-74
2023/02/18 00:53:31;;;;;;;;;7.25;6.50;;;;;14.10;66.63;102119.28;6332459;22;45521;-74
2023/02/18 00:59:19;;;;;;;;;8.00;7.25;;;;;14.12;66.58;102117.41;6332012;22;46234;-74
2023/02/18 01:01:44;;;;;;;;;10.00;10.00;;;;;14.13;66.44;102121.75;6304158;22;46209;-74
2023/02/18 01:04:09;;;;;;;;;8.75;8.75;;;;;14.08;66.31;102108.00;6331577;22;45501;-73
2023/02/18 01:06:35;;;;;;;;;10.25;9.00;;;;;14.14;66.62;102115.50;6332867;22;45502;-73
2023/02/18 01:09:00;;;;;;;;;9.00;9.00;;;;;14.14;66.22;102106.78;6333665;22;46483;-74
2023/02/18 01:11:29;;;;;;;;;9.25;8.50;;;;;14.18;66.62;102106.50;6333183;22;46664;-74
2023/02/18 01:13:54;;;;;;;;;9.50;9.50;;;;;14.19;66.62;102107.34;6333103;22;45755;-74
2023/02/18 01:16:19;;;;;;;;;10.00;9.00;;;;;14.17;66.37;102104.78;6333908;22;45597;-74
2023/02/18 01:18:45;;;;;;;;;10.00;9.00;;;;;14.17;66.61;102103.94;6333178;22;47167;-74
2023/02/18 01:21:10;;;;;;;;;11.50;9.25;;;;;14.13;66.85;102098.03;6334032;22;45652;-74
2023/02/18 01:23:40;;;;;;;;;9.00;8.75;;;;;14.15;66.73;102108.44;6333877;22;45645;-74
2023/02/18 01:29:41;;;;;;;;;10.75;9.25;;;;;14.02;66.63;102094.34;6329438;22;45671;-75
2023/02/18 01:32:06;;;;;;;;;10.00;7.75;;;;;14.06;67.19;102101.97;6333223;22;47097;-74
2023/02/18 01:34:32;;;;;;;;;14.25;8.50;;;;;14.07;67.02;102095.75;6332801;22;45576;-75
2023/02/18 01:36:57;;;;;;;;;9.00;8.50;;;;;14.04;66.99;102095.94;6333081;22;45759;-74
2023/02/18 01:39:23;;;;;;;;;6.50;6.50;;;;;14.05;66.85;102086.25;6333540;22;46489;-74
2023/02/18 01:41:48;;;;;;;;;12.00;10.25;;;;;14.05;66.58;102091.50;6333237;22;45978;-75
2023/02/18 01:44:20;;;;;;;;;11.25;9.75;;;;;14.06;67.09;102103.75;6333565;22;45609;-75
2023/02/18 01:46:46;;;;;;;;;8.75;8.50;;;;;14.00;66.29;102091.81;6333428;22;45408;-74
2023/02/18 01:49:19;;;;;;;;;11.00;9.75;;;;;13.93;66.13;102079.94;6332675;22;47185;-74
2023/02/18 01:51:53;;;;;;;;;8.75;7.75;;;;;13.91;66.21;102092.38;6332843;22;46970;-74
2023/02/18 02:00:32;;;;;;;;;10.75;8.75;;;;;13.85;65.98;102090.97;6333219;22;45871;-75
2023/02/18 02:02:57;;;;;;;;;7.00;5.50;;;;;13.85;65.80;102080.41;6330928;22;47787;-74
2023/02/18 02:05:23;;;;;;;;;5.75;5.50;;;;;13.77;65.96;102058.94;6333305;22;45709;-74
2023/02/18 02:07:51;;;;;;;;;6.00;6.00;;;;;13.84;65.69;102073.44;6333794;22;45623;-74
2023/02/18 02:10:18;;;;;;;;;8.75;8.00;;;;;13.73;66.07;102054.81;6332171;22;45529;-73
2023/02/18 02:12:46;;;;;;;;;9.00;7.25;;;;;13.82;66.15;102075.31;6332488;22;47118;-75
2023/02/18 02:15:32;;;;;;;;;9.00;8.00;;;;;13.83;65.82;102069.13;6332937;22;45509;-74
2023/02/18 02:17:58;;;;;;;;;6.25;5.00;;;;;13.88;65.98;102068.84;6331823;22;45620;-74
2023/02/18 02:20:35;;;;;;;;;9.00;8.00;;;;;13.90;65.95;102061.69;6332789;22;47204;-75
2023/02/18 02:23:38;;;;;;;;;8.25;6.00;;;;;13.91;65.32;102055.47;6333800;22;45942;-74
2023/02/18 02:26:35;;;;;;;;;7.25;6.00;;;;;13.92;65.71;102056.34;6333983;22;45618;-73
2023/02/18 02:29:11;;;;;;;;;7.50;6.00;;;;;13.90;65.73;102056.41;6332749;22;45516;-75
2023/02/18 02:31:48;;;;;;;;;9.00;5.50;;;;;13.88;65.22;102055.66;6333324;22;46335;-76
2023/02/18 02:34:26;;;;;;;;;7.25;5.00;;;;;13.85;65.18;102047.97;6304577;22;46786;-74
2023/02/18 02:37:09;;;;;;;;;8.00;8.00;;;;;13.77;65.41;102035.25;6331931;22;45741;-74
2023/02/18 02:43:14;;;;;;;;;6.50;6.25;;;;;13.74;64.97;102017.00;6332695;22;45636;-73
2023/02/18 02:45:47;;;;;;;;;7.00;7.00;;;;;13.87;65.18;102033.72;6332796;22;45643;-74
2023/02/18 02:48:26;;;;;;;;;6.00;6.00;;;;;13.82;65.00;102032.31;6333153;22;45655;-74
2023/02/18 02:51:29;;;;;;;;;7.25;6.25;;;;;13.81;65.31;102033.28;6333818;22;45884;-73
2023/02/18 02:54:10;;;;;;;;;7.00;4.75;;;;;13.79;65.31;102030.75;6333379;22;46534;-73
2023/02/18 03:00:06;;;;;;;;;6.25;6.25;;;;;13.72;65.46;102013.59;6332901;22;45703;-73
2023/02/18 03:02:34;;;;;;;;;6.00;5.00;;;;;13.78;65.27;102025.56;6333489;22;45814;-73
2023/02/18 03:05:23;;;;;;;;;6.25;5.50;;;;;13.80;65.03;102029.81;6333294;22;46741;-74
2023/02/18 03:08:04;;;;;;;;;7.75;7.75;;;;;13.70;65.13;102006.75;6333418;22;46631;-74
2023/02/18 03:10:42;;;;;;;;;5.25;5.00;;;;;13.73;64.99;102022.38;6304798;22;45522;-75
2023/02/18 03:13:26;;;;;;;;;7.50;7.50;;;;;13.70;65.35;102026.03;6333487;22;45540;-74
2023/02/18 03:15:55;;;;;;;;;8.00;8.00;;;;;13.66;65.03;102029.78;6333786;22;46296;-75
2023/02/18 03:18:30;;;;;;;;;8.25;7.00;;;;;13.63;65.40;102031.78;6304766;22;47764;-74
2023/02/18 03:21:03;;;;;;;;;7.00;6.25;;;;;13.60;65.42;102017.03;6333528;22;45690;-75
2023/02/18 03:23:33;;;;;;;;;6.50;6.00;;;;;13.57;65.08;102018.97;6333398;22;45537;-74
2023/02/18 03:26:01;;;;;;;;;8.00;7.50;;;;;13.59;65.42;102014.47;6332941;22;45729;-74
2023/02/18 03:28:31;;;;;;;;;7.75;5.00;;;;;13.58;65.28;102016.25;6332106;22;46239;-74
2023/02/18 03:31:04;;;;;;;;;6.25;6.25;;;;;13.57;64.71;102014.56;6304692;22;45789;-74
2023/02/18 03:33:38;;;;;;;;;9.50;8.50;;;;;13.58;64.48;102015.41;6333172;22;45835;-74
2023/02/18 03:36:05;;;;;;;;;7.00;6.50;;;;;13.53;64.54;102012.22;6333043;22;45708;-74
2023/02/18 03:38:44;;;;;;;;;8.50;8.00;;;;;13.49;64.50;102021.25;6332461;22;46024;-75
2023/02/18 03:41:10;;;;;;;;;7.50;5.50;;;;;13.42;64.74;102013.72;6332257;22;45709;-74
2023/02/18 03:43:35;;;;;;;;;8.00;8.00;;;;;13.38;64.99;102017.47;6332695;22;45577;-73
2023/02/18 03:46:02;;;;;;;;;12.00;8.75;;;;;13.33;64.97;102010.78;6332283;22;47118;-75
2023/02/18 03:48:28;;;;;;;;;9.25;8.00;;;;;13.38;65.10;102014.00;6333141;22;45977;-75
2023/02/18 03:50:53;;;;;;;;;6.00;5.00;;;;;13.38;64.80;102014.84;6332673;22;46161;-73
2023/02/18 03:53:19;;;;;;;;;9.75;9.75;;;;;13.37;65.01;102012.28;6332603;22;45611;-75
2023/02/18 03:55:44;;;;;;;;;10.00;9.00;;;;;13.37;64.84;102007.03;6333097;22;46618;-74
2023/02/18 03:58:09;;;;;;;;;10.00;9.00;;;;;13.37;64.91;102017.56;6332603;22;45635;-74
2023/02/18 04:00:35;;;;;;;;;7.75;6.25;;;;;13.32;64.54;102003.84;6333153;22;45630;-73
2023/02/18 04:03:01;;;;;;;;;8.00;6.25;;;;;13.25;64.43;101998.09;6304654;22;45909;-75
2023/02/18 04:05:27;;;;;;;;;9.25;8.75;;;;;13.39;64.57;102018.28;6304516;22;48491;-74
2023/02/18 04:07:53;;;;;;;;;7.75;7.25;;;;;13.27;64.45;102003.25;6304217;22;47080;-75
2023/02/18 04:10:18;;;;;;;;;8.00;7.00;;;;;13.32;63.89;102007.31;6278474;22;45698;-74
2023/02/18 04:16:05;;;;;;;;;11.50;11.00;;;;;13.27;64.31;101993.59;6334253;22;45912;-76
2023/02/18 04:18:31;;;;;;;;;9.50;8.50;;;;;13.32;63.51;102015.22;6333897;22;46049;-74
2023/02/18 04:20:56;;;;;;;;;6.00;6.00;;;;;13.29;63.70;102011.91;6333983;22;45668;-75
2023/02/18 04:23:21;;;;;;;;;7.00;7.00;;;;;13.26;63.93;102009.47;6332766;22;45808;-74
2023/02/18 04:32:52;;;;;;;;;7.00;6.50;;;;;13.22;63.47;102005.31;6301254;22;45812;-74
2023/02/18 04:35:17;;;;;;;;;3.75;3.00;;;;;13.24;63.33;102012.16;6302259;22;45676;-75
2023/02/18 04:37:42;;;;;;;;;6.50;5.00;;;;;13.25;63.01;102016.50;6300692;22;47505;-73
2023/02/18 04:40:12;;;;;;;;;8.00;7.25;;;;;13.19;63.16;102010.75;6301195;22;45644;-73
2023/02/18 04:45:58;;;;;;;;;6.50;6.50;;;;;13.13;63.10;101979.53;6302509;22;45566;-74
2023/02/18 04:48:24;;;;;;;;;5.00;5.00;;;;;13.06;62.76;101978.19;6300368;22;48916;-76
2023/02/18 04:50:49;;;;;;;;;8.50;5.75;;;;;13.12;62.87;101983.13;6274641;22;45949;-75
2023/02/18 04:53:15;;;;;;;;;7.00;7.00;;;;;13.16;62.66;102003.06;6301739;22;45760;-74
2023/02/18 04:55:40;;;;;;;;;6.25;6.25;;;;;13.22;62.62;102021.13;6302184;22;45540;-75
2023/02/18 05:01:27;;;;;;;;;6.75;6.50;;;;;13.25;62.74;102005.97;6302251;22;46056;-73
2023/02/18 05:03:52;;;;;;;;;7.00;5.00;;;;;13.24;62.37;102022.69;6301838;22;45482;-74
2023/02/18 05:06:18;;;;;;;;;8.00;6.25;;;;;13.17;62.73;102007.38;6302021;22;45553;-74
2023/02/18 05:08:43;;;;;;;;;8.00;7.50;;;;;13.17;62.78;102000.31;6301521;22;45575;-74
2023/02/18 05:11:09;;;;;;;;;8.50;6.75;;;;;13.13;62.28;102008.47;6301923;22;46016;-73
2023/02/18 05:16:56;;;;;;;;;5.00;5.00;;;;;13.08;62.43;102006.09;6302337;22;45653;-73
2023/02/18 05:19:22;;;;;;;;;10.00;7.00;;;;;13.09;62.83;102012.19;6302363;22;46244;-74
2023/02/18 05:21:47;;;;;;;;;6.00;4.75;;;;;13.07;62.20;102022.81;6275286;22;46478;-74
2023/02/18 05:24:13;;;;;;;;;8.00;7.50;;;;;13.03;62.08;102022.16;6302321;22;45572;-73
2023/02/18 05:26:38;;;;;;;;;5.00;4.00;;;;;12.98;62.18;102018.94;6302294;22;45493;-74
2023/02/18 05:29:03;;;;;;;;;7.25;7.00;;;;;12.98;62.19;102012.84;6301607;22;47155;-74
2023/02/18 05:31:29;;;;;;;;;4.75;4.50;;;;;12.99;62.70;102025.06;6316968;22;45747;-74
2023/02/18 05:33:54;;;;;;;;;4.50;4.25;;;;;12.97;62.61;102019.03;6333969;22;45623;-75
2023/02/18 05:36:21;;;;;;;;;9.00;7.00;;;;;12.93;62.19;102015.75;6333492;22;45629;-73
2023/02/18 05:38:46;;;;;;;;;7.00;5.75;;;;;12.77;62.18;102000.94;6332985;22;47488;-74
2023/02/18 05:41:12;;;;;;;;;9.75;9.25;;;;;12.70;62.15;101996.97;6333799;22;45720;-75
2023/02/18 05:47:05;;;;;;;;;5.25;5.25;;;;;12.82;62.28;102012.03;6333864;22;45584;-75
2023/02/18 05:49:32;;;;;;;;;8.00;7.00;;;;;12.78;62.48;102005.25;6331937;22;46410;-73
2023/02/18 05:51:58;;;;;;;;;7.50;5.75;;;;;12.86;62.48;102018.81;6331824;22;46051;-74
2023/02/18 05:54:27;;;;;;;;;5.00;5.00;;;;;12.88;62.10;102040.63;6305330;22;45816;-74
2023/02/18 05:56:53;;;;;;;;;5.00;5.00;;;;;12.81;62.16;102008.56;6331391;22;45788;-74
2023/02/18 05:59:19;;;;;;;;;7.00;4.00;;;;;12.81;62.08;102013.81;6333140;22;45676;-75
2023/02/18 06:01:48;;;;;;;;;7.75;7.50;;;;;12.66;61.89;101991.03;6333155;22;46155;-75
2023/02/18 06:04:14;;;;;;;;;5.50;5.25;;;;;12.67;62.22;101987.47;6332025;22;45893;-75
2023/02/18 06:06:39;;;;;;;;;8.50;8.00;;;;;12.82;61.83;102006.78;6333911;22;45558;-74
2023/02/18 06:09:06;;;;;;;;;9.75;9.00;;;;;12.82;61.68;102004.16;6333621;22;45852;-75
2023/02/18 06:11:32;;;;;;;;;0.00;0.00;;;;;12.85;61.38;102007.44;6333436;22;46069;-74
2023/02/18 06:17:21;;;;;;;;;10.00;8.75;;;;;12.82;61.25;102007.63;6333795;22;45653;-73
2023/02/18 06:19:46;;;;;;;;;7.50;6.00;;;;;12.73;61.76;102004.69;6333097;22;46607;-74
2023/02/18 06:22:12;;;;;;;;;8.00;7.00;;;;;12.75;61.67;102002.78;6333623;22;45593;-73
2023/02/18 06:24:37;;;;;;;;;7.75;7.00;;;;;12.75;61.79;102001.00;6333880;22;45457;-74
2023/02/18 06:27:03;;;;;;;;;9.00;8.25;;;;;12.72;61.57;101998.56;6334381;22;45470;-75
2023/02/18 06:29:30;;;;;;;;;9.75;7.25;;;;;12.64;61.73;101998.16;6305043;22;47264;-76
2023/02/18 06:31:56;;;;;;;;;7.75;5.00;;;;;12.68;61.61;102006.75;6333262;22;45913;-74
2023/02/18 06:34:21;;;;;;;;;8.00;7.75;;;;;12.67;61.72;101995.38;6305498;22;45832;-75
2023/02/18 06:36:46;;;;;;;;;8.00;8.00;;;;;12.67;61.85;102005.88;6333162;22;45482;-74
2023/02/18 06:39:12;;;;;;;;;8.00;8.00;;;;;12.63;61.64;102004.38;6333626;22;45601;-74
2023/02/18 06:41:37;;;;;;;;;8.00;7.00;;;;;12.59;62.18;101987.91;6305196;22;47245;-73
2023/02/18 06:47:24;;;;;;;;;10.00;6.00;;;;;12.61;62.05;102000.97;6333948;22;45693;-75
2023/02/18 06:49:50;;;;;;;;;8.25;7.00;;;;;12.61;62.59;101991.31;6333843;22;46949;-76
2023/02/18 06:52:15;;;;;;;;;7.00;6.75;;;;;12.62;62.85;101989.53;6332794;22;47059;-75
2023/02/18 06:54:40;;;;;;;;;8.25;7.50;;;;;12.68;62.80;101996.22;6333071;22;46297;-74
2023/02/18 06:57:06;;;;;;;;;10.25;8.25;;;;;12.62;62.79;101994.78;6306662;22;45569;-75
2023/02/18 07:02:54;;;;;;;;;8.00;7.00;;;;;12.67;62.63;101998.00;6333100;22;45514;-73
2023/02/18 07:05:19;;;;;;;;;9.25;7.00;;;;;12.71;62.20;101998.66;6333764;22;45493;-74
2023/02/18 07:07:45;;;;;;;;;8.50;7.00;;;;;12.73;62.21;101994.16;6333082;22;45675;-75
2023/02/18 07:10:10;;;;;;;;;9.00;7.00;;;;;12.67;61.35;101982.22;6333305;22;45579;-74
2023/02/18 07:12:36;;;;;;;;;4.00;4.00;;;;;12.66;61.50;101993.66;6305244;22;47891;-73
2023/02/18 07:15:02;;;;;;;;;3.25;3.25;;;;;12.41;61.04;101949.56;6333800;22;45596;-75
2023/02/18 07:17:28;;;;;;;;;3.75;3.00;;;;;12.46;60.82;101960.66;6333783;22;45583;-76
2023/02/18 07:19:54;;;;;;;;;4.00;4.00;;;;;12.71;60.75;102010.03;6333891;22;46331;-75
2023/02/18 07:22:20;;;;;;;;;4.25;4.00;;;;;12.74;60.79;102003.75;6334452;22;46509;-73
2023/02/18 07:24:45;;;;;;;;;1.00;0.00;;;;;12.68;60.31;102002.31;6333905;22;45710;-74
2023/02/18 07:27:11;;;;;;;;;4.00;4.00;;;;;12.57;60.49;101981.91;6305151;22;45605;-74
2023/02/18 07:32:57;;;;;;;;;3.00;3.00;;;;;12.74;59.85;102007.22;6326590;22;45995;-76
2023/02/18 07:35:23;;;;;;;;;3.00;2.50;;;;;12.77;60.07;102014.09;6333992;22;45645;-73
2023/02/18 07:37:49;;;;;;;;;1.00;0.75;;;;;12.71;59.79;101996.03;6334258;22;45839;-74
2023/02/18 07:40:20;;;;;;;;;4.00;3.00;;;;;12.75;59.65;102018.56;6333770;22;46202;-75
2023/02/18 07:42:57;;;;;;;;;4.50;4.00;;;;;12.75;59.88;102006.28;6333617;22;46968;-75
2023/02/18 07:45:22;;;;;;;;;3.00;3.00;;;;;12.77;59.83;102008.81;6333402;22;45635;-74
2023/02/18 07:47:48;;;;;;;;;5.00;4.00;;;;;12.77;59.65;102011.47;6333680;22;45613;-74
2023/02/18 07:50:13;;;;;;;;;2.75;2.50;;;;;12.57;59.63;101973.19;6331606;22;46482;-74
2023/02/18 07:52:39;;;;;;;;;4.00;3.00;;;;;12.70;59.30;101987.28;6324939;22;45924;-73
2023/02/18 07:55:14;;;;;;;;;2.00;2.00;;;;;12.71;59.54;101990.78;6323054;22;45803;-71
2023/02/18 07:57:56;;;;;;;;;2.00;2.00;;;;;12.87;59.15;102004.72;6295583;22;45734;-72
2023/02/18 08:03:46;;;;;;;;;1.50;1.50;;;;;12.82;59.48;102004.16;6289000;22;45927;-73
2023/02/18 08:06:36;;;;;;;;;1.00;1.00;;;;;12.85;59.21;102023.22;6289978;22;45778;-74
2023/02/18 08:09:02;;;;;;;;;2.00;2.00;;;;;12.73;58.99;102002.91;6265765;22;45728;-74
2023/02/18 08:11:28;;;;;;;;;1.00;1.00;;;;;12.71;59.03;101994.25;6288973;22;47270;-75
2023/02/18 08:13:53;;;;;;;;;2.00;2.00;;;;;12.82;58.70;102017.28;6288387;22;45807;-73
2023/02/18 08:16:20;;;;;;;;;1.50;1.00;;;;;12.86;59.20;102030.19;6287089;22;45777;-72
2023/02/18 08:18:49;;;;;;;;;1.25;1.25;;;;;12.75;58.89;102018.56;6288560;22;45985;-73
2023/02/18 08:21:16;;;;;;;;;2.50;2.00;;;;;12.81;58.96;102032.22;6270400;22;47145;-73
2023/02/18 08:23:42;;;;;;;;;2.00;2.00;;;;;12.71;58.71;102020.53;6294496;22;46266;-71
2023/02/18 08:26:08;;;;;;;;;2.00;1.50;;;;;12.77;58.97;102027.25;6298539;22;45632;-73
2023/02/18 08:28:33;;;;;;;;;2.00;1.50;;;;;12.80;58.90;102029.69;6299221;22;45509;-73
2023/02/18 08:30:59;;;;;;;;;1.00;1.00;;;;;12.72;58.57;102027.50;6310325;22;46138;-73
2023/02/18 08:33:27;;;;;;;;;2.00;2.00;;;;;12.77;59.09;102035.97;6332680;22;46585;-73
2023/02/18 08:35:53;;;;;;;;;1.50;1.50;;;;;12.79;58.67;102039.38;6333620;22;45608;-74
2023/02/18 08:38:20;;;;;;;;;1.25;1.25;;;;;12.80;58.58;102037.56;6334290;22;45639;-73
2023/02/18 08:40:46;;;;;;;;;1.00;0.00;;;;;12.81;58.77;102039.25;6334098;22;45560;-73
2023/02/18 08:43:12;;;;;;;;;1.25;1.00;;;;;12.79;58.76;102035.91;6333014;22;47326;-74
2023/02/18 08:49:03;;;;;;;;;1.00;1.00;;;;;12.74;58.47;102037.94;6334119;22;45755;-74
2023/02/18 08:51:28;;;;;;;;;2.00;1.00;;;;;12.75;58.80;102034.34;6306141;22;45551;-74
2023/02/18 08:53:54;;;;;;;;;1.00;1.00;;;;;12.76;59.11;102039.53;6305906;22;45895;-74
2023/02/18 08:56:19;;;;;;;;;2.00;2.00;;;;;12.75;59.07;102037.84;6333044;22;45552;-74
2023/02/18 08:58:45;;;;;;;;;1.00;1.00;;;;;12.79;59.02;102059.56;6333714;22;45469;-74
2023/02/18 09:01:12;;;;;;;;;0.75;0.00;;;;;12.78;58.76;102044.72;6304319;22;48471;-72
2023/02/18 09:03:38;;;;;;;;;1.00;1.00;;;;;12.73;58.50;102038.88;6331309;22;45919;-75
2023/02/18 09:06:04;;;;;;;;;0.00;0.00;;;;;12.78;58.90;102042.09;6329315;22;45626;-75
2023/02/18 09:08:30;;;;;;;;;2.00;1.50;;;;;12.85;58.86;102048.66;6330394;22;45652;-74
2023/02/18 09:11:01;;;;;;;;;1.00;1.00;;;;;12.84;58.96;102033.84;6330079;22;46553;-74
2023/02/18 09:13:27;;;;;;;;;1.25;0.75;;;;;12.88;58.81;102052.00;6329687;22;45781;-74
2023/02/18 09:19:13;;;;;;;;;2.00;1.25;;;;;12.95;58.50;102053.34;6329330;22;45652;-75
2023/02/18 09:21:39;;;;;;;;;1.00;1.00;;;;;12.91;58.58;102049.16;6329356;22;46550;-74
2023/02/18 09:24:04;;;;;;;;;1.00;1.00;;;;;12.89;58.77;102044.94;6329736;22;46481;-72
2023/02/18 09:26:30;;;;;;;;;0.00;0.00;;;;;12.87;58.74;102058.19;6329816;22;45848;-72
2023/02/18 09:28:56;;;;;;;;;1.00;0.50;;;;;12.82;58.92;102048.84;6334693;22;45813;-73
2023/02/18 09:34:57;;;;;;;;;1.75;1.00;;;;;12.89;58.48;102050.22;6330597;22;45762;-75
2023/02/18 09:37:23;;;;;;;;;2.00;1.00;;;;;12.87;58.76;102049.44;6335712;22;45801;-75
2023/02/18 09:39:48;;;;;;;;;1.00;1.00;;;;;12.95;58.94;102063.00;6333340;22;45500;-76
2023/02/18 09:42:17;;;;;;;;;1.00;1.00;;;;;12.79;58.39;102033.28;6333649;22;46407;-76
2023/02/18 09:44:55;;;;;;;;;0.00;0.00;;;;;12.94;58.77;102059.53;6335136;22;46223;-77
2023/02/18 09:47:25;;;;;;;;;0.50;0.50;;;;;12.95;58.67;102060.38;6334852;22;45720;-75
2023/02/18 09:49:56;;;;;;;;;1.75;1.00;;;;;12.96;58.38;102062.91;6334074;22;45735;-75
2023/02/18 09:52:28;;;;;;;;;2.00;0.00;;;;;12.99;58.48;102067.16;6335072;22;45444;-77
2023/02/18 09:54:57;;;;;;;;;0.00;0.00;;;;;12.89;58.62;102044.94;6333230;22;48100;-75
2023/02/18 09:57:32;;;;;;;;;1.00;1.00;;;;;13.01;58.23;102050.31;6334283;22;45632;-74
2023/02/18 10:00:06;;;;;;;;;1.75;0.00;;;;;13.08;58.64;102052.59;6304251;22;45641;-76
2023/02/18 10:02:34;;;;;;;;;0.50;0.25;;;;;13.09;58.39;102056.94;6304008;22;45698;-77
2023/02/18 10:05:00;;;;;;;;;0.00;0.00;;;;;13.09;58.52;102046.41;6333747;22;45842;-75
2023/02/18 10:07:30;;;;;;;;;0.00;0.00;;;;;13.23;57.79;102068.38;6333884;22;45586;-76
2023/02/18 10:10:02;;;;;;;;;0.00;0.00;;;;;13.14;57.95;102053.13;6335433;22;45595;-75
2023/02/18 10:12:31;;;;;;;;;1.00;0.00;;;;;13.17;58.06;102047.69;6335022;22;45627;-75
2023/02/18 10:14:59;;;;;;;;;1.00;0.00;;;;;13.26;57.52;102070.00;6334552;22;45984;-75
2023/02/18 10:17:31;;;;;;;;;1.00;0.00;;;;;13.24;57.64;102064.81;6333681;22;45721;-76
2023/02/18 10:19:58;;;;;;;;;1.00;0.00;;;;;13.29;58.14;102080.31;6335201;22;45537;-75
2023/02/18 10:22:26;;;;;;;;;1.00;1.00;;;;;13.34;57.99;102068.59;6332670;22;48071;-75
2023/02/18 10:24:58;;;;;;;;;0.00;0.00;;;;;13.32;57.82;102070.50;6334424;22;46264;-76
2023/02/18 10:27:30;;;;;;;;;0.00;0.00;;;;;13.27;57.57;102069.06;6334210;22;45550;-75
2023/02/18 10:30:36;;;;;;;;;0.00;0.00;;;;;13.24;57.93;102074.50;6337904;22;45507;-84
2023/02/18 10:33:31;;;;;;;;;0.00;0.00;;;;;13.23;57.78;102072.78;6211930;22;45616;-75
2023/02/18 10:35:59;;;;;;;;;0.00;0.00;;;;;13.23;57.63;102070.16;6153283;23;45950;-75
2023/02/18 10:38:58;;;;;;;;;0.75;0.00;;;;;13.23;57.91;102083.31;6178269;23;45609;-75
2023/02/18 10:41:41;;;;;;;;;1.00;0.00;;;;;13.20;57.78;102094.03;6152472;23;46026;-76
2023/02/18 10:44:36;;;;;;;;;2.00;0.00;;;;;13.14;57.62;102065.44;6177683;23;46555;-75
2023/02/18 10:50:38;;;;;;;;;1.00;0.25;;;;;13.15;57.58;102068.00;6177268;22;45817;-74
2023/02/18 10:53:23;;;;;;;;;0.75;0.00;;;;;13.15;57.96;102083.78;6177127;23;45461;-75
2023/02/18 10:55:53;;;;;;;;;0.00;0.00;;;;;13.12;58.04;102069.97;6178203;23;46297;-76
2023/02/18 10:58:26;;;;;;;;;1.00;0.50;;;;;13.19;58.12;102071.28;6177891;23;45719;-73
2023/02/18 11:00:52;;;;;;;;;0.25;0.00;;;;;13.21;57.95;102070.28;6177358;23;45743;-74
2023/02/18 11:03:21;;;;;;;;;0.00;0.00;;;;;13.22;57.58;102068.50;6152916;23;45735;-75
2023/02/18 11:05:51;;;;;;;;;1.00;0.00;;;;;13.23;57.63;102078.06;6178496;23;45700;-76
2023/02/18 11:08:25;;;;;;;;;1.00;1.00;;;;;13.21;57.67;102091.31;6176640;23;47201;-75
2023/02/18 11:10:52;;;;;;;;;1.00;0.00;;;;;13.20;58.12;102072.97;6176918;23;45745;-74
2023/02/18 11:13:26;;;;;;;;;1.50;1.00;;;;;13.12;58.15;102055.00;6173676;23;45498;-74
2023/02/18 11:16:04;;;;;;;;;2.75;1.00;;;;;13.28;57.48;102062.88;6175893;23;45722;-75
2023/02/18 11:18:31;;;;;;;;;0.00;0.00;;;;;13.31;57.66;102065.31;6175179;23;45881;-76
2023/02/18 11:21:00;;;;;;;;;1.00;1.00;;;;;13.30;57.65;102084.66;6176843;23;45634;-74
2023/02/18 11:23:26;;;;;;;;;0.75;0.75;;;;;13.27;57.82;102074.31;6176139;23;45579;-76
2023/02/18 11:26:03;;;;;;;;;0.00;0.00;;;;;13.27;57.84;102063.81;6175314;23;46460;-76
2023/02/18 11:28:48;;;;;;;;;1.00;0.00;;;;;13.27;57.43;102067.28;6202759;22;48151;-77
2023/02/18 11:31:23;;;;;;;;;0.75;0.50;;;;;13.17;57.63;102052.94;6302075;22;45587;-74
2023/02/18 11:33:58;;;;;;;;;1.00;1.00;;;;;13.30;57.03;102084.66;6307552;22;45722;-76
2023/02/18 11:36:28;;;;;;;;;0.00;0.00;;;;;13.29;57.55;102075.06;6335273;22;47413;-75
2023/02/18 11:39:05;;;;;;;;;1.00;0.75;;;;;13.25;57.51;102082.31;6309159;22;46145;-77
2023/02/18 11:41:37;;;;;;;;;1.00;0.75;;;;;13.29;57.42;102078.53;6336504;22;45790;-76
2023/02/18 11:44:31;;;;;;;;;0.00;0.00;;;;;13.31;57.25;102067.94;6336076;22;45481;-75
2023/02/18 11:47:01;;;;;;;;;1.00;1.00;;;;;13.35;57.27;102067.66;6334542;22;47007;-75
2023/02/18 11:49:32;;;;;;;;;1.00;1.00;;;;;13.04;57.29;102023.84;6335788;22;45787;-76
2023/02/18 11:52:25;;;;;;;;;0.75;0.25;;;;;13.38;57.17;102072.75;6306787;22;45703;-76
2023/02/18 11:55:20;;;;;;;;;0.50;0.50;;;;;13.38;56.97;102069.28;6305108;22;45849;-76
2023/02/18 11:57:55;;;;;;;;;1.00;0.75;;;;;13.34;57.07;102065.09;6333581;22;47329;-75
2023/02/18 12:00:23;;;;;;;;;1.00;1.00;;;;;13.30;57.18;102067.09;6333593;22;46297;-72
2023/02/18 12:02:51;;;;;;;;;1.00;1.00;;;;;13.25;57.25;102048.09;6334053;22;45646;-72
2023/02/18 12:05:24;;;;;;;;;1.00;0.75;;;;;13.32;57.54;102053.84;6332419;22;46060;-73
2023/02/18 12:08:01;;;;;;;;;1.00;1.00;;;;;13.34;57.16;102063.31;6334729;22;46089;-71
2023/02/18 12:10:38;;;;;;;;;2.00;0.25;;;;;13.38;57.32;102059.59;6334530;22;45390;-72
2023/02/18 12:13:22;;;;;;;;;1.75;1.00;;;;;13.41;57.32;102046.25;6333692;22;45495;-73
2023/02/18 12:16:06;;;;;;;;;2.00;1.25;;;;;13.42;57.10;102041.81;6332760;22;45888;-73
2023/02/18 12:18:50;;;;;;;;;1.00;1.00;;;;;13.41;57.20;102040.97;6333047;22;46631;-71
2023/02/18 12:21:40;;;;;;;;;0.00;0.00;;;;;13.43;56.66;102044.38;6304825;22;45833;-74
2023/02/18 12:24:32;;;;;;;;;0.50;0.00;;;;;13.46;56.72;102035.44;6236546;22;45682;-74
2023/02/18 12:27:08;;;;;;;;;1.00;1.00;;;;;13.50;56.82;102050.09;6237249;22;45769;-74
2023/02/18 12:30:00;;;;;;;;;0.00;0.00;;;;;13.51;56.99;102029.88;6237239;22;47229;-71
2023/02/18 12:36:08;;;;;;;;;1.00;1.00;;;;;13.59;57.04;102017.09;6233123;22;45774;-73
2023/02/18 12:38:50;;;;;;;;;1.25;1.25;;;;;13.69;56.66;102020.88;6237587;22;45444;-73
2023/02/18 12:41:21;;;;;;;;;0.50;0.50;;;;;13.75;56.76;102010.81;6236971;22;46719;-72
2023/02/18 12:44:19;;;;;;;;;1.00;1.00;;;;;13.69;56.40;101991.91;6237600;22;46062;-73
2023/02/18 12:50:44;;;;;;;;;0.00;0.00;;;;;13.82;56.81;102001.56;6237712;22;45552;-72
2023/02/18 12:53:33;;;;;;;;;0.00;0.00;;;;;13.80;56.06;102005.25;6189900;22;47448;-73
2023/02/18 12:56:19;;;;;;;;;1.00;0.00;;;;;13.77;56.27;102010.69;6236883;22;46413;-72
2023/02/18 12:58:56;;;;;;;;;2.00;0.50;;;;;13.79;56.22;101990.38;6236684;22;45613;-74
2023/02/18 13:05:53;;;;;;;;;0.00;0.00;;;;;13.72;56.22;102000.44;6207611;22;46115;-74
2023/02/18 13:08:50;;;;;;;;;2.00;0.75;;;;;13.70;56.49;101994.44;6207224;22;45970;-73